Avon, Montana
Current Conditions -  °F | °C
As of 11:53 AM on Saturday 20 Dec 2014 (Local Time) from KHLN Reporting Station
Clear Clear  
Wind Chill: 34°   Ceiling: Unl
Heat Index: 34°   Visibility: 10mi
Dew Point: 23°   Wind: 3mph
Humidity: 64%   Direction: 360°N
Pressure: 29.88"   Gusts: NA
Location:  46.59°N, 112.61°W
Report Text: KHLN 201853Z 36003KT 10SM CLR 01/M05 A2988 RMK AO2 SLP156 T00111050
Loading
Personal Weather Stations






























Interactive Weather Map New forecast layout! Learn more

10-Day Weather Forecast

Advertisements
Track Severe Weather on mobile